Time;durP1;ratioP1;P1;durP2;ratioP2;P2;SDS_P1;SDS_P2;PMS_P1;PMS_P2;Temp;Humidity;BMP_temperature;BMP_pressure;BME280_temperature;BME280_humidity;BME280_pressure;Samples;Min_cycle;Max_cycle;Signal;HPM_P1;HPM_P2
2021/12/14 00:00:22;;;;;;;12.60;6.32;;;;;;;-0.38;100.00;100500.00;5151972;27;20051;-49
2021/12/14 00:02:50;;;;;;;11.77;6.40;;;;;;;-0.40;100.00;100510.22;5151942;27;20137;-49
2021/12/14 00:05:20;;;;;;;10.80;6.78;;;;;;;-0.37;100.00;100499.72;5152004;27;20050;-50
2021/12/14 00:07:47;;;;;;;12.95;6.80;;;;;;;-0.24;100.00;100493.88;5151873;27;20515;-48
2021/12/14 00:10:31;;;;;;;13.65;6.78;;;;;;;-0.24;100.00;100493.88;5151741;27;20046;-48
2021/12/14 00:13:05;;;;;;;12.07;6.28;;;;;;;-0.22;100.00;100493.63;5151802;27;20046;-48
2021/12/14 00:15:32;;;;;;;13.52;6.38;;;;;;;-0.21;100.00;100497.94;5151911;27;20046;-48
2021/12/14 00:18:01;;;;;;;10.85;6.32;;;;;;;-0.39;100.00;100512.66;5151712;27;20067;-48
2021/12/14 00:20:35;;;;;;;13.10;6.32;;;;;;;-0.38;100.00;100508.88;5151889;27;20047;-49
2021/12/14 00:25:51;;;;;;;12.38;7.15;;;;;;;-0.53;100.00;100512.28;5151960;27;20557;-48
2021/12/14 00:28:23;;;;;;;10.93;6.50;;;;;;;-0.52;100.00;100511.22;5151512;27;20099;-48
2021/12/14 00:30:51;;;;;;;11.38;6.18;;;;;;;-0.32;100.00;100513.25;5151842;27;20137;-48
2021/12/14 00:33:20;;;;;;;10.98;6.55;;;;;;;-0.40;100.00;100519.13;5151227;27;20053;-47
2021/12/14 00:35:48;;;;;;;12.57;6.88;;;;;;;-0.35;100.00;100519.16;5151261;27;20501;-49
2021/12/14 00:38:16;;;;;;;12.23;6.20;;;;;;;-0.28;100.00;100513.53;5151334;27;20050;-48
2021/12/14 00:40:46;;;;;;;10.70;5.55;;;;;;;-0.34;100.00;100523.47;5151793;27;20183;-48
2021/12/14 00:43:13;;;;;;;10.60;5.50;;;;;;;-0.48;100.00;100517.72;5151526;27;20085;-48
2021/12/14 00:45:43;;;;;;;9.50;5.70;;;;;;;-0.59;100.00;100524.09;5151447;27;20227;-49
2021/12/14 00:48:11;;;;;;;9.90;5.43;;;;;;;-0.48;100.00;100525.78;5151656;27;20527;-48
2021/12/14 00:50:40;;;;;;;8.40;5.10;;;;;;;-0.36;100.00;100531.00;5151060;27;20047;-48
2021/12/14 00:53:06;;;;;;;8.90;4.75;;;;;;;-0.42;100.00;100531.22;5151591;27;20532;-48
2021/12/14 00:55:36;;;;;;;8.20;5.05;;;;;;;-0.52;100.00;100545.44;5151117;27;20051;-47
2021/12/14 00:58:05;;;;;;;9.43;5.00;;;;;;;-0.53;100.00;100555.41;5150651;27;20054;-49
2021/12/14 01:00:35;;;;;;;9.80;5.07;;;;;;;-0.54;100.00;100550.25;5150971;27;20072;-48
2021/12/14 01:03:03;;;;;;;9.05;5.25;;;;;;;-0.58;100.00;100557.22;5151152;27;20064;-48
2021/12/14 01:05:35;;;;;;;7.93;4.80;;;;;;;-0.56;100.00;100553.22;5151005;27;20050;-48
2021/12/14 01:08:05;;;;;;;10.18;5.45;;;;;;;-0.50;100.00;100554.03;5150862;27;20099;-48
2021/12/14 01:10:35;;;;;;;8.95;5.32;;;;;;;-0.45;100.00;100550.59;5151098;27;20043;-48
2021/12/14 01:13:06;;;;;;;9.65;5.18;;;;;;;-0.39;100.00;100549.56;5150787;27;20049;-48
2021/12/14 01:15:50;;;;;;;9.82;5.35;;;;;;;-0.38;100.00;100548.50;5151060;27;20043;-48
2021/12/14 01:18:30;;;;;;;9.48;5.60;;;;;;;-0.31;100.00;100546.38;5150739;27;20569;-48
2021/12/14 01:21:02;;;;;;;8.65;5.60;;;;;;;-0.27;100.00;100542.09;5150954;27;20535;-47
2021/12/14 01:23:32;;;;;;;9.07;4.53;;;;;;;-0.19;100.00;100540.81;5151080;27;20046;-48
2021/12/14 01:26:07;;;;;;;11.00;6.13;;;;;;;-0.24;100.00;100547.78;5150773;27;20051;-49
2021/12/14 01:28:33;;;;;;;8.15;5.20;;;;;;;-0.24;100.00;100539.69;5151015;27;20046;-48
2021/12/14 01:31:09;;;;;;;12.05;6.18;;;;;;;-0.28;100.00;100535.91;5150649;27;20050;-48
2021/12/14 01:33:39;;;;;;;8.43;5.13;;;;;;;-0.30;100.00;100545.31;5151054;27;20452;-48
2021/12/14 01:36:12;;;;;;;11.57;6.05;;;;;;;-0.39;100.00;100533.41;5154171;27;20042;-48
2021/12/14 01:38:47;;;;;;;10.70;5.93;;;;;;;-0.37;100.00;100529.38;5154091;27;20095;-49
2021/12/14 01:41:18;;;;;;;13.13;5.82;;;;;;;-0.36;100.00;100541.78;5154447;27;20107;-48
2021/12/14 01:43:48;;;;;;;11.55;5.97;;;;;;;-0.33;100.00;100532.38;5154614;27;20055;-51
2021/12/14 01:46:19;;;;;;;9.52;6.10;;;;;;;-0.33;100.00;100524.28;5154250;27;20106;-50
2021/12/14 01:48:47;;;;;;;9.73;5.15;;;;;;;-0.47;100.00;100531.97;5154160;27;20501;-48
2021/12/14 01:51:14;;;;;;;9.40;5.78;;;;;;;-0.53;100.00;100517.69;5154223;27;20050;-48
2021/12/14 01:53:43;;;;;;;9.00;5.40;;;;;;;-0.51;100.00;100506.63;5153932;27;20051;-51
2021/12/14 01:56:13;;;;;;;11.27;5.90;;;;;;;-0.63;100.00;100509.53;5153825;27;20118;-48
2021/12/14 01:58:45;;;;;;;10.75;5.72;;;;;;;-0.58;100.00;100508.75;5153332;27;20572;-49
2021/12/14 02:01:15;;;;;;;10.00;5.80;;;;;;;-0.50;100.00;100502.88;5153844;27;20501;-48
2021/12/14 02:03:46;;;;;;;11.95;5.50;;;;;;;-0.43;100.00;100494.56;5153971;27;20050;-52
2021/12/14 02:06:16;;;;;;;14.40;6.43;;;;;;;-0.41;100.00;100503.19;5153994;27;20058;-49
2021/12/14 02:08:43;;;;;;;10.02;5.72;;;;;;;-0.42;100.00;100505.09;5153956;27;20042;-48
2021/12/14 02:11:10;;;;;;;11.25;6.20;;;;;;;-0.43;100.00;100514.25;5154041;27;20057;-50
2021/12/14 02:13:40;;;;;;;11.13;6.00;;;;;;;-0.45;100.00;100507.50;5153816;27;20053;-52
2021/12/14 02:16:08;;;;;;;9.60;6.28;;;;;;;-0.48;100.00;100506.13;5153421;27;20057;-53
2021/12/14 02:18:35;;;;;;;12.35;6.10;;;;;;;-0.40;100.00;100515.59;5153876;27;20053;-52
2021/12/14 02:21:06;;;;;;;10.95;6.18;;;;;;;-0.40;100.00;100508.34;5153554;27;20050;-50
2021/12/14 02:23:33;;;;;;;11.73;6.68;;;;;;;-0.38;100.00;100508.06;5153632;27;20053;-50
2021/12/14 02:26:04;;;;;;;9.55;5.65;;;;;;;-0.35;100.00;100499.47;5153443;27;20587;-50
2021/12/14 02:28:30;;;;;;;11.30;5.90;;;;;;;-0.35;100.00;100507.56;5153485;27;20151;-50
2021/12/14 02:30:58;;;;;;;9.88;5.88;;;;;;;-0.32;100.00;100507.03;5153354;27;20046;-52
2021/12/14 02:33:29;;;;;;;13.43;6.63;;;;;;;-0.35;100.00;100508.38;5153467;27;20129;-47
2021/12/14 02:35:56;;;;;;;10.35;6.32;;;;;;;-0.36;100.00;100516.72;5153330;27;20055;-45
2021/12/14 02:38:25;;;;;;;10.75;6.20;;;;;;;-0.45;100.00;100513.69;5153314;27;20095;-49
2021/12/14 02:40:57;;;;;;;10.60;5.88;;;;;;;-0.53;100.00;100523.06;5153697;27;20047;-50
2021/12/14 02:43:27;;;;;;;12.80;6.22;;;;;;;-0.58;100.00;100527.59;5153435;27;20051;-47
2021/12/14 02:46:02;;;;;;;12.10;6.43;;;;;;;-0.59;100.00;100521.41;5152529;27;20051;-46
2021/12/14 02:48:29;;;;;;;11.48;6.68;;;;;;;-0.53;100.00;100525.75;5153452;27;20051;-45
2021/12/14 02:50:55;;;;;;;10.48;5.35;;;;;;;-0.55;100.00;100527.91;5153062;27;20050;-45
2021/12/14 02:53:22;;;;;;;8.82;5.57;;;;;;;-0.62;100.00;100519.22;5153139;27;20049;-47
2021/12/14 02:55:48;;;;;;;10.57;6.10;;;;;;;-0.68;100.00;100525.63;5152700;27;20050;-46
2021/12/14 02:58:15;;;;;;;13.25;6.43;;;;;;;-0.63;100.00;100524.84;5152607;27;20050;-46
2021/12/14 03:00:46;;;;;;;21.25;8.30;;;;;;;-0.64;100.00;100521.34;5153045;27;20043;-46
2021/12/14 03:03:13;;;;;;;43.90;11.82;;;;;;;-0.65;100.00;100527.00;5153311;27;20518;-47
2021/12/14 03:05:42;;;;;;;40.25;12.18;;;;;;;-0.57;100.00;100519.25;5153103;27;20710;-46
2021/12/14 03:08:14;;;;;;;32.28;8.40;;;;;;;-0.58;100.00;100519.50;5153255;27;20078;-47
2021/12/14 03:10:58;;;;;;;25.17;7.88;;;;;;;-0.58;100.00;100514.94;5152658;27;20076;-47
2021/12/14 03:13:29;;;;;;;18.50;6.90;;;;;;;-0.59;100.00;100534.06;5152817;27;20055;-47
2021/12/14 03:15:57;;;;;;;9.57;6.13;;;;;;;-0.62;100.00;100523.81;5152922;27;20106;-46
2021/12/14 03:18:30;;;;;;;10.82;5.45;;;;;;;-0.71;100.00;100526.16;5152601;27;20194;-47
2021/12/14 03:21:01;;;;;;;11.30;5.88;;;;;;;-0.74;100.00;100524.75;5152747;27;20047;-47
2021/12/14 03:23:31;;;;;;;9.45;5.53;;;;;;;-0.74;100.00;100511.31;5152425;27;20042;-47
2021/12/14 03:26:01;;;;;;;10.93;6.32;;;;;;;-0.82;100.00;100517.16;5152834;27;20046;-48
2021/12/14 03:28:29;;;;;;;9.77;5.95;;;;;;;-0.83;100.00;100517.44;5152681;27;20511;-48
2021/12/14 03:31:17;;;;;;;10.77;6.03;;;;;;;-0.83;100.00;100506.66;5152395;27;20575;-47
2021/12/14 03:33:47;;;;;;;8.88;5.32;;;;;;;-0.88;100.00;100514.69;5152623;27;20050;-47
2021/12/14 03:36:18;;;;;;;9.77;5.93;;;;;;;-0.82;100.00;100506.41;5152241;27;20054;-47
2021/12/14 03:38:50;;;;;;;9.27;5.93;;;;;;;-0.70;100.00;100500.81;5152541;27;20046;-47
2021/12/14 03:41:21;;;;;;;12.68;5.75;;;;;;;-0.61;100.00;100503.88;5152328;27;20114;-47
2021/12/14 03:43:53;;;;;;;11.02;6.00;;;;;;;-0.55;100.00;100502.84;5152400;27;20648;-47
2021/12/14 03:46:19;;;;;;;12.20;5.85;;;;;;;-0.58;100.00;100506.06;5152075;27;20055;-46
2021/12/14 03:48:46;;;;;;;9.05;5.85;;;;;;;-0.58;100.00;100504.16;5152398;27;20050;-47
2021/12/14 03:51:12;;;;;;;14.05;6.55;;;;;;;-0.62;100.00;100508.44;5152104;27;20046;-48
2021/12/14 03:53:38;;;;;;;9.85;5.85;;;;;;;-0.66;100.00;100512.72;5151966;27;20432;-47
2021/12/14 03:56:07;;;;;;;11.85;6.72;;;;;;;-0.70;100.00;100508.91;5151928;27;20046;-46
2021/12/14 03:58:37;;;;;;;10.88;6.00;;;;;;;-0.69;100.00;100505.16;5151367;27;20107;-47
2021/12/14 04:01:08;;;;;;;11.32;6.10;;;;;;;-0.64;100.00;100507.06;5152036;27;20541;-47
2021/12/14 04:03:35;;;;;;;12.13;6.28;;;;;;;-0.60;100.00;100505.47;5152001;27;20137;-46
2021/12/14 04:06:03;;;;;;;12.10;6.60;;;;;;;-0.51;100.00;100498.56;5152086;27;20050;-47
2021/12/14 04:08:31;;;;;;;12.52;6.70;;;;;;;-0.53;100.00;100504.22;5151703;27;20141;-47
2021/12/14 04:11:00;;;;;;;11.32;6.20;;;;;;;-0.48;100.00;100504.22;5151991;27;20418;-48
2021/12/14 04:13:31;;;;;;;7.70;5.15;;;;;;;-0.50;100.00;100502.88;5151678;27;20052;-47
2021/12/14 04:15:58;;;;;;;10.50;5.68;;;;;;;-0.58;100.00;100500.66;5151900;27;20401;-47
2021/12/14 04:18:25;;;;;;;10.75;5.80;;;;;;;-0.60;100.00;100505.47;5151651;27;20137;-47
2021/12/14 04:20:55;;;;;;;11.07;5.78;;;;;;;-0.61;100.00;100509.25;5151533;27;20465;-47
2021/12/14 04:23:25;;;;;;;9.65;5.82;;;;;;;-0.60;100.00;100509.00;5151847;27;20050;-48
2021/12/14 04:25:53;;;;;;;9.82;6.10;;;;;;;-0.64;100.00;100515.16;5151704;27;20054;-46
2021/12/14 04:28:22;;;;;;;10.55;6.05;;;;;;;-0.91;100.00;100517.88;5151427;27;20050;-47
2021/12/14 04:30:49;;;;;;;11.13;6.53;;;;;;;-0.89;100.00;100523.84;5151565;27;20061;-47
2021/12/14 04:33:22;;;;;;;9.65;5.80;;;;;;;-0.85;100.00;100519.56;5151860;27;20046;-48
2021/12/14 04:35:48;;;;;;;8.65;5.65;;;;;;;-0.80;100.00;100517.75;5151090;27;20527;-47
2021/12/14 04:38:21;;;;;;;9.38;5.10;;;;;;;-0.76;100.00;100520.72;5151573;27;20047;-49
2021/12/14 04:51:58;;;;;;;9.13;5.55;;;;;;;-0.86;100.00;100518.75;5151347;27;20126;-46
2021/12/14 04:54:26;;;;;;;9.60;5.50;;;;;;;-0.94;100.00;100516.50;5150835;27;20111;-47
2021/12/14 04:56:53;;;;;;;11.75;5.50;;;;;;;-0.82;100.00;100510.97;5150345;27;20043;-47
2021/12/14 04:59:23;;;;;;;10.55;5.72;;;;;;;-0.72;100.00;100502.97;5151142;27;20053;-48
2021/12/14 05:01:51;;;;;;;11.57;5.50;;;;;;;-0.58;100.00;100509.56;5150958;27;20082;-48
2021/12/14 05:04:21;;;;;;;8.73;5.53;;;;;;;-0.62;100.00;100508.44;5151285;27;20576;-48
2021/12/14 05:06:50;;;;;;;10.48;5.97;;;;;;;-0.59;100.00;100515.22;5150928;27;20505;-48
2021/12/14 05:09:21;;;;;;;8.70;5.45;;;;;;;-0.49;100.00;100512.59;5151899;27;20107;-49
2021/12/14 05:11:48;;;;;;;12.90;6.35;;;;;;;-0.35;100.00;100513.75;5154265;27;20046;-47
2021/12/14 05:14:14;;;;;;;9.45;5.82;;;;;;;-0.49;100.00;100515.28;5154375;27;20141;-48
2021/12/14 05:16:41;;;;;;;11.18;5.82;;;;;;;-0.54;100.00;100513.34;5154270;27;20185;-48
2021/12/14 05:19:11;;;;;;;11.38;6.43;;;;;;;-0.54;100.00;100518.72;5154163;27;20047;-48
2021/12/14 05:21:41;;;;;;;9.38;5.10;;;;;;;-0.42;100.00;100513.19;5154366;27;20068;-49
2021/12/14 05:24:11;;;;;;;10.00;5.82;;;;;;;-0.24;100.00;100504.66;5153798;27;20072;-48
2021/12/14 05:26:37;;;;;;;9.65;5.93;;;;;;;-0.28;100.00;100508.94;5153993;27;20503;-48
2021/12/14 05:29:05;;;;;;;10.60;5.57;;;;;;;-0.19;100.00;100509.28;5154366;27;20046;-48
2021/12/14 05:31:32;;;;;;;9.13;5.45;;;;;;;-0.24;100.00;100514.63;5154051;27;20053;-48
2021/12/14 05:33:58;;;;;;;8.82;5.30;;;;;;;-0.24;100.00;100514.63;5153375;27;20047;-49
2021/12/14 05:36:26;;;;;;;7.97;5.65;;;;;;;-0.15;100.00;100517.66;5153600;27;20508;-47
2021/12/14 05:38:59;;;;;;;9.70;6.15;;;;;;;-0.08;100.00;100516.34;5153955;27;20051;-50
2021/12/14 05:44:15;;;;;;;10.43;5.55;;;;;;;0.06;100.00;100518.56;5152877;27;20150;-47
2021/12/14 05:46:49;;;;;;;12.55;6.43;;;;;;;0.18;100.00;100517.28;5133457;27;20054;-47
2021/12/14 05:49:18;;;;;;;13.70;6.55;;;;;;;0.22;100.00;100512.19;5139760;27;20083;-50
2021/12/14 05:51:45;;;;;;;12.40;6.20;;;;;;;0.20;100.00;100515.16;5153469;27;20057;-47
2021/12/14 05:54:19;;;;;;;9.15;5.57;;;;;;;0.23;100.00;100511.94;5154013;27;20050;-50
2021/12/14 05:56:45;;;;;;;8.77;5.72;;;;;;;0.29;100.00;100510.06;5153845;27;20050;-51
2021/12/14 05:59:11;;;;;;;11.38;6.30;;;;;;;0.33;100.00;100508.44;5153081;27;20042;-51
2021/12/14 06:01:38;;;;;;;9.27;6.20;;;;;;;0.30;100.00;100500.91;5153159;27;20489;-49
2021/12/14 06:04:08;;;;;;;13.45;6.50;;;;;;;0.25;100.00;100508.97;5153352;27;20055;-49
2021/12/14 06:06:37;;;;;;;14.63;6.85;;;;;;;0.23;100.00;100509.25;5153477;27;20146;-49
2021/12/14 06:09:08;;;;;;;13.85;7.25;;;;;;;0.35;100.00;100517.09;5153819;27;20695;-48
2021/12/14 06:11:35;;;;;;;11.70;6.85;;;;;;;0.39;100.00;100517.38;5153302;27;20145;-48
2021/12/14 06:14:02;;;;;;;14.27;7.38;;;;;;;0.32;100.00;100511.41;5131957;27;20137;-47
2021/12/14 06:16:32;;;;;;;12.27;7.57;;;;;;;0.28;100.00;100513.03;5140784;27;20151;-48
2021/12/14 06:19:17;;;;;;;14.00;7.70;;;;;;;0.22;100.00;100509.47;5146975;27;20508;-46
2021/12/14 06:21:46;;;;;;;16.63;8.60;;;;;;;0.19;100.00;100508.13;5151660;27;20076;-51
2021/12/14 06:24:13;;;;;;;13.05;7.28;;;;;;;0.21;100.00;100510.56;5153091;27;20427;-47
2021/12/14 06:26:44;;;;;;;12.82;7.00;;;;;;;0.22;100.00;100504.09;5152919;27;20393;-47
2021/12/14 06:29:13;;;;;;;11.88;6.88;;;;;;;0.23;100.00;100501.16;5147789;27;20077;-49
2021/12/14 06:31:41;;;;;;;10.73;6.13;;;;;;;0.15;100.00;100493.53;5132344;28;20071;-48
2021/12/14 06:34:16;;;;;;;12.00;6.72;;;;;;;0.19;100.00;100504.63;5132077;28;20134;-47
2021/12/14 06:37:22;;;;;;;12.35;7.15;;;;;;;0.12;100.00;100495.97;5132303;28;20574;-47
2021/12/14 06:40:00;;;;;;;13.70;8.05;;;;;;;0.08;100.00;100492.97;5131988;28;20093;-48
2021/12/14 06:42:27;;;;;;;14.10;7.72;;;;;;;0.09;100.00;100502.69;5120805;28;20104;-48
2021/12/14 06:45:08;;;;;;;13.23;6.72;;;;;;;0.06;100.00;100499.69;5123043;28;20047;-49
2021/12/14 06:47:35;;;;;;;14.57;7.43;;;;;;;-0.04;100.00;100503.97;5144229;27;20456;-48
2021/12/14 06:50:03;;;;;;;13.25;7.15;;;;;;;-0.11;100.00;100506.09;5128323;28;20047;-49
2021/12/14 06:52:29;;;;;;;12.40;6.97;;;;;;;-0.09;100.00;100503.94;5131392;28;20149;-51
2021/12/14 06:54:56;;;;;;;11.40;6.97;;;;;;;0.02;100.00;100501.31;5131429;28;20049;-50
2021/12/14 06:57:22;;;;;;;11.45;6.63;;;;;;;-0.01;100.00;100511.53;5131329;28;20047;-48
2021/12/14 06:59:49;;;;;;;8.18;5.78;;;;;;;-0.11;100.00;100489.91;5131840;27;20079;-48
2021/12/14 07:02:21;;;;;;;10.60;6.00;;;;;;;-0.27;100.00;100489.03;5131960;28;20072;-48
2021/12/14 07:04:48;;;;;;;11.15;5.93;;;;;;;-0.40;100.00;100478.72;5131680;28;20047;-49
2021/12/14 07:07:15;;;;;;;10.52;5.95;;;;;;;-0.40;100.00;100489.50;5131479;28;20057;-52
2021/12/14 07:09:44;;;;;;;13.23;7.40;;;;;;;-0.38;100.00;100494.59;5131399;27;20098;-47
2021/12/14 07:12:14;;;;;;;11.95;5.82;;;;;;;-0.38;100.00;100497.28;5131131;27;20051;-49
2021/12/14 07:14:54;;;;;;;6.88;4.65;;;;;;;-0.54;100.00;100483.72;5137817;27;20089;-49
2021/12/14 07:17:27;;;;;;;7.95;4.70;;;;;;;-0.55;100.00;100479.41;5152139;27;20068;-50
2021/12/14 07:19:57;;;;;;;11.55;4.93;;;;;;;-0.50;100.00;100473.22;5147877;27;20047;-48
2021/12/14 07:22:41;;;;;;;10.65;5.57;;;;;;;-0.57;100.00;100476.16;5131159;28;20531;-49
2021/12/14 07:25:12;;;;;;;11.05;5.25;;;;;;;-0.51;100.00;100482.38;5131168;28;20047;-47
2021/12/14 07:27:39;;;;;;;8.98;5.53;;;;;;;-0.52;100.00;100484.28;5131386;28;20094;-51
2021/12/14 07:30:15;;;;;;;7.88;4.85;;;;;;;-0.51;100.00;100485.91;5131544;28;20417;-47
2021/12/14 07:32:46;;;;;;;8.65;5.22;;;;;;;-0.50;100.00;100494.78;5131036;27;20515;-49
2021/12/14 07:35:32;;;;;;;8.13;4.68;;;;;;;-0.64;100.00;100483.63;5130778;28;20474;-50
2021/12/14 07:38:04;;;;;;;10.45;5.30;;;;;;;-0.67;100.00;100492.22;5123627;28;20046;-48
2021/12/14 07:40:39;;;;;;;27.75;8.80;;;;;;;-0.72;100.00;100495.72;5123828;28;20055;-47
2021/12/14 07:43:12;;;;;;;10.32;6.03;;;;;;;-0.73;100.00;100498.69;5130900;28;20047;-47
2021/12/14 07:45:38;;;;;;;11.82;5.82;;;;;;;-0.71;100.00;100516.19;5131521;28;20051;-51
2021/12/14 07:48:05;;;;;;;8.98;5.18;;;;;;;-0.66;100.00;100523.50;5131347;28;20050;-50
2021/12/14 07:50:45;;;;;;;7.63;4.85;;;;;;;-0.65;100.00;100524.31;5131563;28;20043;-47
2021/12/14 07:53:11;;;;;;;7.05;4.20;;;;;;;-0.64;100.00;100526.72;5131455;27;20107;-48
2021/12/14 07:55:42;;;;;;;8.25;4.43;;;;;;;-0.70;100.00;100522.38;5130698;28;20043;-50
2021/12/14 07:58:08;;;;;;;6.35;4.53;;;;;;;-0.80;100.00;100512.34;5130450;28;20417;-52
2021/12/14 08:00:40;;;;;;;8.77;5.05;;;;;;;-0.76;100.00;100501.88;5130892;28;20137;-50
2021/12/14 08:03:08;;;;;;;6.55;4.63;;;;;;;-0.68;100.00;100506.78;5130853;28;20051;-49
2021/12/14 08:05:40;;;;;;;7.78;4.47;;;;;;;-0.58;100.00;100514.13;5130771;28;20107;-48
2021/12/14 08:08:16;;;;;;;5.72;3.83;;;;;;;-0.58;100.00;100504.16;5130520;28;20512;-51
2021/12/14 08:10:46;;;;;;;5.80;3.83;;;;;;;-0.45;100.00;100494.03;5130840;28;20455;-49
2021/12/14 08:13:15;;;;;;;5.90;4.07;;;;;;;-0.33;100.00;100483.88;5130593;28;20471;-48
2021/12/14 08:15:45;;;;;;;7.70;4.80;;;;;;;-0.35;100.00;100462.56;5130477;28;20500;-48
2021/12/14 08:18:16;;;;;;;7.05;4.07;;;;;;;-0.42;100.00;100443.13;5131062;28;20159;-48
2021/12/14 08:20:53;;;;;;;7.55;4.35;;;;;;;-0.36;100.00;100431.31;5130184;28;20102;-52
2021/12/14 08:23:22;;;;;;;9.90;4.93;;;;;;;-0.39;100.00;100423.75;5130477;28;20487;-51
2021/12/14 08:25:51;;;;;;;9.13;4.53;;;;;;;-0.33;100.00;100430.78;5129505;28;20070;-51
2021/12/14 08:28:21;;;;;;;9.10;5.65;;;;;;;-0.17;100.00;100439.75;5129423;28;20058;-49
2021/12/14 08:30:56;;;;;;;9.27;5.20;;;;;;;-0.05;100.00;100448.44;5131003;27;20059;-49
2021/12/14 08:33:25;;;;;;;7.45;4.75;;;;;;;-0.01;100.00;100443.31;5130256;28;20473;-47
2021/12/14 08:35:54;;;;;;;9.30;4.45;;;;;;;-0.04;100.00;100420.38;5130251;28;20062;-49
2021/12/14 08:38:20;;;;;;;9.80;4.70;;;;;;;-0.14;100.00;100382.59;5126348;28;20417;-48
2021/12/14 08:40:50;;;;;;;9.95;5.47;;;;;;;-0.15;100.00;100350.53;5130555;28;20061;-47
2021/12/14 08:43:23;;;;;;;7.65;4.50;;;;;;;-0.13;100.00;100340.31;5129672;27;20050;-49
2021/12/14 08:45:53;;;;;;;7.55;4.65;;;;;;;-0.26;100.00;100311.97;5129570;28;20059;-48
2021/12/14 08:48:24;;;;;;;7.43;4.65;;;;;;;-0.19;100.00;100315.22;5126151;28;20051;-48
2021/12/14 08:50:54;;;;;;;7.30;4.93;;;;;;;-0.10;100.00;100323.59;5128235;28;20086;-51
2021/12/14 08:53:22;;;;;;;10.07;5.07;;;;;;;-0.13;100.00;100302.59;5112462;28;20074;-49
2021/12/14 08:55:51;;;;;;;9.02;5.07;;;;;;;-0.09;100.00;100277.50;5130004;28;20051;-48
2021/12/14 08:58:18;;;;;;;8.35;5.10;;;;;;;-0.03;100.00;100260.28;5128829;28;20234;-47
2021/12/14 09:00:47;;;;;;;8.93;5.40;;;;;;;0.06;100.00;100257.84;5129344;28;20049;-50
2021/12/14 09:03:20;;;;;;;7.65;5.25;;;;;;;0.12;100.00;100266.75;5129777;28;20051;-47
2021/12/14 09:05:49;;;;;;;7.70;5.35;;;;;;;0.10;100.00;100272.44;5129006;28;20059;-48
2021/12/14 09:08:18;;;;;;;9.00;5.82;;;;;;;0.04;100.00;100278.09;5133956;27;20043;-48
2021/12/14 09:10:51;;;;;;;12.18;5.28;;;;;;;-0.04;100.00;100287.47;5109584;28;20074;-47
2021/12/14 09:13:17;;;;;;;11.15;5.45;;;;;;;-0.02;100.00;100271.88;5130527;28;20047;-48
2021/12/14 09:15:49;;;;;;;8.43;5.35;;;;;;;0.03;100.00;100295.31;5130005;28;20047;-48
2021/12/14 09:18:18;;;;;;;12.73;5.95;;;;;;;0.05;100.00;100318.25;5129823;28;20086;-49
2021/12/14 09:20:49;;;;;;;9.80;5.78;;;;;;;0.09;100.00;100303.16;5129925;28;20581;-48
2021/12/14 09:23:18;;;;;;;10.15;6.13;;;;;;;0.15;100.00;100304.78;5129776;28;20525;-51
2021/12/14 09:25:45;;;;;;;10.98;6.40;;;;;;;0.21;100.00;100290.22;5129861;28;20047;-50
2021/12/14 09:28:12;;;;;;;10.05;5.80;;;;;;;0.26;100.00;100273.22;5129994;28;20509;-50
2021/12/14 09:30:43;;;;;;;10.40;6.05;;;;;;;0.33;100.00;100252.19;5129785;28;20141;-48
2021/12/14 09:33:10;;;;;;;10.82;6.30;;;;;;;0.31;100.00;100245.47;5129757;28;20055;-48
2021/12/14 09:35:37;;;;;;;14.10;7.05;;;;;;;0.29;100.00;100218.75;5129473;28;20051;-48
2021/12/14 09:38:07;;;;;;;9.77;5.68;;;;;;;0.22;100.00;100207.44;5129400;28;20143;-48
2021/12/14 09:40:37;;;;;;;11.88;6.32;;;;;;;0.20;100.00;100214.97;5129444;28;20043;-46
2021/12/14 09:43:04;;;;;;;9.68;6.03;;;;;;;0.27;100.00;100196.66;5129639;28;20497;-48
2021/12/14 09:45:37;;;;;;;9.80;6.18;;;;;;;0.31;100.00;100195.03;5129479;28;20059;-47
2021/12/14 09:48:05;;;;;;;12.93;7.07;;;;;;;0.41;100.00;100186.09;5129772;28;20048;-51
2021/12/14 09:50:35;;;;;;;12.80;6.80;;;;;;;0.35;100.00;100168.31;5129485;28;20142;-48
2021/12/14 09:53:06;;;;;;;9.52;5.72;;;;;;;0.44;100.00;100169.38;5129982;28;20055;-48
2021/12/14 09:55:36;;;;;;;12.98;6.20;;;;;;;0.39;100.00;100126.22;5130863;27;20099;-49
2021/12/14 09:58:11;;;;;;;8.00;5.22;;;;;;;0.36;100.00;100127.56;5132757;28;20102;-48
2021/12/14 10:00:43;;;;;;;8.88;4.68;;;;;;;0.11;100.00;100090.69;5132777;28;20054;-48
2021/12/14 10:03:10;;;;;;;10.68;5.28;;;;;;;-0.05;100.00;100102.56;5131987;28;20092;-50
2021/12/14 10:05:39;;;;;;;9.60;5.55;;;;;;;0.16;100.00;100155.38;5132070;28;20077;-48
2021/12/14 10:08:15;;;;;;;6.78;4.93;;;;;;;0.19;100.00;100157.53;5132271;28;20104;-48
2021/12/14 10:10:42;;;;;;;6.80;4.90;;;;;;;0.18;100.00;100150.53;5111967;28;20113;-50
2021/12/14 10:13:09;;;;;;;15.75;7.38;;;;;;;0.27;100.00;100140.00;5132746;28;20462;-50
2021/12/14 10:15:39;;;;;;;14.27;7.55;;;;;;;0.31;100.00;100124.91;5132823;28;20055;-50
2021/12/14 10:18:09;;;;;;;14.13;6.70;;;;;;;0.35;100.00;100107.06;5132862;28;20406;-50
2021/12/14 10:20:43;;;;;;;24.48;10.52;;;;;;;0.42;100.00;100104.09;5132405;28;20104;-49
2021/12/14 10:23:12;;;;;;;65.72;20.33;;;;;;;0.48;100.00;100108.38;5132721;28;20556;-51
2021/12/14 10:25:39;;;;;;;16.00;9.73;;;;;;;0.26;100.00;100070.94;5132664;28;20135;-50
2021/12/14 10:28:06;;;;;;;27.50;12.27;;;;;;;0.30;100.00;100082.81;5132547;28;20051;-53
2021/12/14 10:30:35;;;;;;;10.55;6.82;;;;;;;0.26;100.00;100100.63;5132611;28;20456;-49
2021/12/14 10:33:03;;;;;;;17.98;8.73;;;;;;;0.32;100.00;100121.09;5132393;28;20047;-53
2021/12/14 10:35:36;;;;;;;24.65;12.50;;;;;;;0.37;100.00;100121.09;5132603;28;20058;-55
2021/12/14 10:38:14;;;;;;;10.20;6.32;;;;;;;0.34;100.00;100115.44;5132273;28;20082;-53
2021/12/14 10:43:30;;;;;;;12.20;7.60;;;;;;;0.31;100.00;100116.81;5131945;27;20528;-50
2021/12/14 10:46:00;;;;;;;23.38;9.98;;;;;;;0.47;100.00;100150.75;5131627;28;20111;-48
2021/12/14 10:48:30;;;;;;;11.75;7.05;;;;;;;0.50;100.00;100121.59;5132267;28;20047;-53
2021/12/14 10:51:01;;;;;;;12.32;7.28;;;;;;;0.49;100.00;100090.31;5128402;28;20401;-47
2021/12/14 10:53:27;;;;;;;16.85;7.97;;;;;;;0.55;100.00;100095.41;5120949;28;20069;-50
2021/12/14 10:55:58;;;;;;;11.90;7.00;;;;;;;0.54;100.00;100060.63;5131156;28;20051;-49
2021/12/14 10:58:29;;;;;;;12.73;6.72;;;;;;;0.57;100.00;100051.97;5129818;28;20142;-49
2021/12/14 11:00:59;;;;;;;11.05;6.50;;;;;;;0.62;100.00;100041.94;5131563;28;20061;-51
2021/12/14 11:03:34;;;;;;;15.68;5.63;;;;;;;0.68;100.00;100056.22;5131914;28;20379;-49
2021/12/14 11:06:03;;;;;;;10.45;5.78;;;;;;;0.68;100.00;100058.94;5131509;27;20059;-51
2021/12/14 11:08:39;;;;;;;17.17;6.72;;;;;;;0.77;100.00;100067.25;5130756;28;20379;-50
2021/12/14 11:11:11;;;;;;;11.27;5.50;;;;;;;0.86;100.00;100076.38;5132197;28;20062;-53
2021/12/14 11:13:44;;;;;;;10.75;5.63;;;;;;;0.73;100.00;100013.00;5131334;27;20506;-49
2021/12/14 11:16:16;;;;;;;8.43;5.25;;;;;;;0.73;100.00;99985.22;5130981;28;20043;-51
2021/12/14 11:18:45;;;;;;;16.27;6.13;;;;;;;0.72;100.00;99991.72;5131498;28;20503;-50
2021/12/14 11:21:14;;;;;;;13.88;6.80;;;;;;;0.83;100.00;100025.66;5125764;28;20517;-53
2021/12/14 11:23:45;;;;;;;10.27;6.10;;;;;;;0.81;100.00;100006.25;5110992;28;20048;-49
2021/12/14 11:26:15;;;;;;;10.38;6.15;;;;;;;0.68;100.00;99975.28;5118547;28;20051;-53
2021/12/14 11:28:43;;;;;;;10.18;5.85;;;;;;;0.52;100.00;99930.56;5130701;28;20055;-51
2021/12/14 11:31:13;;;;;;;9.27;6.20;;;;;;;0.53;100.00;99948.38;5131000;28;20510;-49
2021/12/14 11:33:44;;;;;;;15.45;7.93;;;;;;;0.62;100.00;99981.78;5131071;28;20493;-48
2021/12/14 11:36:14;;;;;;;13.68;6.55;;;;;;;0.62;100.00;100008.75;5130546;28;20073;-52
2021/12/14 11:38:44;;;;;;;26.20;10.65;;;;;;;0.61;100.00;100015.25;5129843;28;20130;-51
2021/12/14 11:41:32;;;;;;;14.32;7.28;;;;;;;0.58;100.00;100029.31;5131081;28;20083;-51
2021/12/14 11:44:03;;;;;;;16.52;8.98;;;;;;;0.60;100.00;100040.59;5130143;28;20517;-48
2021/12/14 11:46:32;;;;;;;50.88;15.43;;;;;;;0.61;100.00;100042.25;5129808;27;20426;-50